Kahului, Hawaii
Current Conditions -  °F | °C
As of 10:54 AM on Tuesday 21 Oct 2014 (Local Time) from PHOG Reporting Station
Few Clouds Few Clouds  
Wind Chill: 84°   Ceiling: Unl
Heat Index: 87°   Visibility: 10mi
Dew Point: 67°   Wind: 8mph
Humidity: 56%   Direction: 320°NW
Pressure: 30"   Gusts: NA
Location:  20.89°N, 156.46°W
Report Text: PHOG 212054Z 32007KT 10SM FEW045 29/19 A3000 RMK AO2 SLP163 T02890194 58004
Loading
Personal Weather Stations






























Interactive Weather Map
Tropical Storm Tracking
New forecast layout! Learn more

10-Day Weather Forecast

Advertisements
Track Severe Weather on mobile